Clipper 3 — ZMT3984 — position and weather

sailwx.info

Track history (hours):
 
Tides and Currents Weather Stations Pressure Air Temp Water Temp Dewpoint Dewpoint Depression Visibility Wind Speed Wind Dir Waves Ship Positions

Clipper 3

Last reported at 2017-Sep-22 01:54 UTC. Time now 2017-Sep-25 19:03 UTC.
Position S 36°50' E 174°52'.

Length 15 m.

Type: High speed craft. MMSI: 512000741.

Date/timePositionNaut miles runAvg speedWind from/ knotsBaromVisibWave heightAir tempDewpointWater temp
2017-Sep-22 01:54S 36°50' E 174°52'1 0.3
2017-Sep-22 00:23S 36°50' E 174°51'0 0.0
2017-Sep-21 22:03S 36°50' E 174°51'0 0.2
2017-Sep-21 20:13S 36°50' E 174°52'521.3
2017-Sep-21 20:00S 36°51' E 174°46'4 0.3
2017-Sep-21 05:52S 36°50' E 174°51'0 0.1
2017-Sep-21 04:34S 36°50' E 174°51'328.3
2017-Sep-21 04:27S 36°50' E 174°47'3 0.4
2017-Sep-20 20:53S 36°50' E 174°51'1 0.5
2017-Sep-20 19:37S 36°50' E 174°52'429.3
2017-Sep-20 19:28S 36°50' E 174°47'3 0.3
2017-Sep-20 07:53S 36°50' E 174°51'4 8.5
2017-Sep-20 07:28S 36°50' E 174°47'4 2.2
2017-Sep-20 05:54S 36°50' E 174°51'0 0.0
2017-Sep-20 01:53S 36°50' E 174°51'3 6.0
2017-Sep-20 01:24S 36°50' E 174°48'3 2.7
2017-Sep-20 00:22S 36°50' E 174°51'410.1
2017-Sep-19 23:58S 36°50' E 174°46'3 3.0
2017-Sep-19 23:01S 36°50' E 174°50'033.6
2017-Sep-19 23:01S 36°50' E 174°49'1 0.7
2017-Sep-19 20:54S 36°50' E 174°51'3 5.5
2017-Sep-19 20:26S 36°50' E 174°48'3 3.0
2017-Sep-19 19:34S 36°50' E 174°51'232.0
2017-Sep-19 19:31S 36°50' E 174°49'2 0.1
2017-Sep-19 05:53S 36°50' E 174°51'410.1
2017-Sep-19 05:29S 36°50' E 174°46'4 4.5
2017-Sep-19 04:32S 36°50' E 174°51'132.1
2017-Sep-19 04:30S 36°50' E 174°50'1 0.5
2017-Sep-19 01:53S 36°50' E 174°51'3 6.5
2017-Sep-19 01:25S 36°50' E 174°47'3 2.9
2017-Sep-19 00:24S 36°50' E 174°51'410.0
2017-Sep-18 23:59S 36°50' E 174°46'4 2.1
2017-Sep-18 22:04S 36°50' E 174°51'230.7
2017-Sep-18 22:01S 36°50' E 174°49'1 2.5
2017-Sep-18 21:29S 36°50' E 174°47'3 2.2
2017-Sep-18 20:11S 36°50' E 174°51'3 6.8
2017-Sep-18 19:44S 36°50' E 174°47'4 0.3
2017-Sep-18 05:54S 36°50' E 174°52'3 6.8
2017-Sep-18 05:24S 36°50' E 174°48'2 2.0
2017-Sep-18 04:34S 36°50' E 174°50'126.5
2017-Sep-18 04:30S 36°50' E 174°48'3 1.0
2017-Sep-18 01:55S 36°50' E 174°51'3 6.3
2017-Sep-18 01:28S 36°50' E 174°48'3 2.8
2017-Sep-18 00:24S 36°50' E 174°51'3 5.8
2017-Sep-17 23:56S 36°50' E 174°48'3 1.5
2017-Sep-17 22:04S 36°50' E 174°51'231.7
2017-Sep-17 22:00S 36°50' E 174°49'  
2017-Sep-15 05:53S 36°50' E 174°51'3 7.9
2017-Sep-15 05:30S 36°50' E 174°47'2 1.8
2017-Sep-15 04:31S 36°50' E 174°50'028.1
2017-Sep-15 04:31S 36°50' E 174°49'2 0.6
2017-Sep-15 01:57S 36°50' E 174°51'3 5.6
2017-Sep-15 01:28S 36°50' E 174°48'2 1.4
2017-Sep-15 00:22S 36°50' E 174°50'1 3.2
2017-Sep-14 23:56S 36°50' E 174°48'3 1.5
2017-Sep-14 22:04S 36°50' E 174°51'128.7
2017-Sep-14 22:01S 36°50' E 174°49'1 2.7
2017-Sep-14 21:30S 36°50' E 174°48'3 2.3
2017-Sep-14 20:15S 36°50' E 174°51'410.4
2017-Sep-14 19:51S 36°50' E 174°46'4 0.3
2017-Sep-14 05:52S 36°50' E 174°51'411.4
2017-Sep-14 05:30S 36°50' E 174°46'4 4.1
2017-Sep-14 04:32S 36°50' E 174°51'132.0
2017-Sep-14 04:30S 36°50' E 174°50'0 0.0
2017-Sep-14 01:50S 36°50' E 174°50'3 8.5
2017-Sep-14 01:29S 36°50' E 174°46'4 3.7
2017-Sep-14 00:23S 36°50' E 174°51'3 6.9
2017-Sep-13 23:56S 36°50' E 174°47'3 3.3
2017-Sep-13 23:03S 36°50' E 174°51'131.9
2017-Sep-13 23:00S 36°50' E 174°50'1 0.0
2017-Sep-13 05:51S 36°50' E 174°50'3 6.1
2017-Sep-13 05:25S 36°50' E 174°47'3 3.4
2017-Sep-13 04:32S 36°50' E 174°51'132.9
2017-Sep-13 04:30S 36°50' E 174°50'1 0.4
2017-Sep-13 01:54S 36°50' E 174°51'3 6.2
2017-Sep-13 01:27S 36°50' E 174°48'3 2.5
2017-Sep-13 00:23S 36°50' E 174°51'2 5.2
2017-Sep-12 23:55S 36°50' E 174°48'4 2.3
2017-Sep-12 22:08S 36°51' E 174°53'430.8
2017-Sep-12 22:00S 36°51' E 174°48'0 0.4
2017-Sep-12 21:29S 36°50' E 174°48'2 1.9
2017-Sep-12 20:12S 36°50' E 174°51'412.1
2017-Sep-12 19:53S 36°51' E 174°46'4 0.3
2017-Sep-12 05:52S 36°50' E 174°51'411.9
2017-Sep-12 05:31S 36°50' E 174°46'4 4.4
2017-Sep-12 04:32S 36°50' E 174°51'132.8
2017-Sep-12 04:30S 36°50' E 174°50'  
Track history (hours):
 
Tides and Currents Weather Stations Pressure Air Temp Water Temp Dewpoint Dewpoint Depression Visibility Wind Speed Wind Dir Waves Ship Positions

Clipper 3

Last reported at 2017-Sep-22 01:54 UTC. Time now 2017-Sep-25 19:03 UTC.
Position S 36°50' E 174°52'.

Length 15 m.

Type: High speed craft. MMSI: 512000741.

Date/timePositionNaut miles runAvg speedWind from/ knotsBaromVisibWave heightAir tempDewpointWater temp
2017-Sep-22 01:54S 36°50' E 174°52'1 0.3
2017-Sep-22 00:23S 36°50' E 174°51'0 0.0
2017-Sep-21 22:03S 36°50' E 174°51'0 0.2
2017-Sep-21 20:13S 36°50' E 174°52'521.3
2017-Sep-21 20:00S 36°51' E 174°46'4 0.3
2017-Sep-21 05:52S 36°50' E 174°51'0 0.1
2017-Sep-21 04:34S 36°50' E 174°51'328.3
2017-Sep-21 04:27S 36°50' E 174°47'3 0.4
2017-Sep-20 20:53S 36°50' E 174°51'1 0.5
2017-Sep-20 19:37S 36°50' E 174°52'429.3
2017-Sep-20 19:28S 36°50' E 174°47'3 0.3
2017-Sep-20 07:53S 36°50' E 174°51'4 8.5
2017-Sep-20 07:28S 36°50' E 174°47'4 2.2
2017-Sep-20 05:54S 36°50' E 174°51'0 0.0
2017-Sep-20 01:53S 36°50' E 174°51'3 6.0
2017-Sep-20 01:24S 36°50' E 174°48'3 2.7
2017-Sep-20 00:22S 36°50' E 174°51'410.1
2017-Sep-19 23:58S 36°50' E 174°46'3 3.0
2017-Sep-19 23:01S 36°50' E 174°50'033.6
2017-Sep-19 23:01S 36°50' E 174°49'1 0.7
2017-Sep-19 20:54S 36°50' E 174°51'3 5.5
2017-Sep-19 20:26S 36°50' E 174°48'3 3.0
2017-Sep-19 19:34S 36°50' E 174°51'232.0
2017-Sep-19 19:31S 36°50' E 174°49'2 0.1
2017-Sep-19 05:53S 36°50' E 174°51'410.1
2017-Sep-19 05:29S 36°50' E 174°46'4 4.5
2017-Sep-19 04:32S 36°50' E 174°51'132.1
2017-Sep-19 04:30S 36°50' E 174°50'1 0.5
2017-Sep-19 01:53S 36°50' E 174°51'3 6.5
2017-Sep-19 01:25S 36°50' E 174°47'3 2.9
2017-Sep-19 00:24S 36°50' E 174°51'410.0
2017-Sep-18 23:59S 36°50' E 174°46'4 2.1
2017-Sep-18 22:04S 36°50' E 174°51'230.7
2017-Sep-18 22:01S 36°50' E 174°49'1 2.5
2017-Sep-18 21:29S 36°50' E 174°47'3 2.2
2017-Sep-18 20:11S 36°50' E 174°51'3 6.8
2017-Sep-18 19:44S 36°50' E 174°47'4 0.3
2017-Sep-18 05:54S 36°50' E 174°52'3 6.8
2017-Sep-18 05:24S 36°50' E 174°48'2 2.0
2017-Sep-18 04:34S 36°50' E 174°50'126.5
2017-Sep-18 04:30S 36°50' E 174°48'3 1.0
2017-Sep-18 01:55S 36°50' E 174°51'3 6.3
2017-Sep-18 01:28S 36°50' E 174°48'3 2.8
2017-Sep-18 00:24S 36°50' E 174°51'3 5.8
2017-Sep-17 23:56S 36°50' E 174°48'3 1.5
2017-Sep-17 22:04S 36°50' E 174°51'231.7
2017-Sep-17 22:00S 36°50' E 174°49'  
2017-Sep-15 05:53S 36°50' E 174°51'3 7.9
2017-Sep-15 05:30S 36°50' E 174°47'2 1.8
2017-Sep-15 04:31S 36°50' E 174°50'028.1
2017-Sep-15 04:31S 36°50' E 174°49'2 0.6
2017-Sep-15 01:57S 36°50' E 174°51'3 5.6
2017-Sep-15 01:28S 36°50' E 174°48'2 1.4
2017-Sep-15 00:22S 36°50' E 174°50'1 3.2
2017-Sep-14 23:56S 36°50' E 174°48'3 1.5
2017-Sep-14 22:04S 36°50' E 174°51'128.7
2017-Sep-14 22:01S 36°50' E 174°49'1 2.7
2017-Sep-14 21:30S 36°50' E 174°48'3 2.3
2017-Sep-14 20:15S 36°50' E 174°51'410.4
2017-Sep-14 19:51S 36°50' E 174°46'4 0.3
2017-Sep-14 05:52S 36°50' E 174°51'411.4
2017-Sep-14 05:30S 36°50' E 174°46'4 4.1
2017-Sep-14 04:32S 36°50' E 174°51'132.0
2017-Sep-14 04:30S 36°50' E 174°50'0 0.0
2017-Sep-14 01:50S 36°50' E 174°50'3 8.5
2017-Sep-14 01:29S 36°50' E 174°46'4 3.7
2017-Sep-14 00:23S 36°50' E 174°51'3 6.9
2017-Sep-13 23:56S 36°50' E 174°47'3 3.3
2017-Sep-13 23:03S 36°50' E 174°51'131.9
2017-Sep-13 23:00S 36°50' E 174°50'1 0.0
2017-Sep-13 05:51S 36°50' E 174°50'3 6.1
2017-Sep-13 05:25S 36°50' E 174°47'3 3.4
2017-Sep-13 04:32S 36°50' E 174°51'132.9
2017-Sep-13 04:30S 36°50' E 174°50'1 0.4
2017-Sep-13 01:54S 36°50' E 174°51'3 6.2
2017-Sep-13 01:27S 36°50' E 174°48'3 2.5
2017-Sep-13 00:23S 36°50' E 174°51'2 5.2
2017-Sep-12 23:55S 36°50' E 174°48'4 2.3
2017-Sep-12 22:08S 36°51' E 174°53'430.8
2017-Sep-12 22:00S 36°51' E 174°48'0 0.4
2017-Sep-12 21:29S 36°50' E 174°48'2 1.9
2017-Sep-12 20:12S 36°50' E 174°51'412.1
2017-Sep-12 19:53S 36°51' E 174°46'4 0.3
2017-Sep-12 05:52S 36°50' E 174°51'411.9
2017-Sep-12 05:31S 36°50' E 174°46'4 4.4
2017-Sep-12 04:32S 36°50' E 174°51'132.8
2017-Sep-12 04:30S 36°50' E 174°50'  

Dump ship's entire track history